Verhalen, Texas
Current Conditions -  °F | °C
As of 12:35 PM on Saturday 20 Dec 2014 (Local Time) from KPEQ Reporting Station
Clear Clear  
Wind Chill: 50°   Ceiling: Unl
Heat Index: 50°   Visibility: 10mi
Dew Point: 33°   Wind: 3mph
Humidity: 53%   Direction: 30°NNE
Pressure: 30.12"   Gusts: NA
Location:  31.4465°N, 103.713°W
Report Text: KPEQ 201835Z AUTO 03003KT 10SM CLR 10/01 A3012 RMK AO2 T01000008
Loading
Personal Weather Stations






























Interactive Weather Map New forecast layout! Learn more

10-Day Weather Forecast

Advertisements
Track Severe Weather on mobile